createdAt,value
2018-12-15T00:02:03.548Z,7.90
2018-12-15T00:04:32.012Z,10.57
2018-12-15T00:07:00.398Z,10.73
2018-12-15T00:09:28.797Z,11.83
2018-12-15T00:11:57.245Z,8.50
2018-12-15T00:14:25.691Z,7.63
2018-12-15T00:16:54.004Z,12.50
2018-12-15T00:19:22.670Z,10.23
2018-12-15T00:21:51.240Z,10.90
2018-12-15T00:24:19.612Z,9.17
2018-12-15T00:26:47.940Z,10.67
2018-12-15T00:29:16.306Z,8.80
2018-12-15T00:31:44.966Z,7.73
2018-12-15T00:34:13.442Z,10.33
2018-12-15T00:36:41.766Z,7.00
2018-12-15T00:39:10.071Z,8.33
2018-12-15T00:41:38.462Z,7.77
2018-12-15T00:44:06.869Z,9.17
2018-12-15T00:46:35.409Z,8.80
2018-12-15T00:49:03.712Z,9.20
2018-12-15T00:51:32.055Z,10.10
2018-12-15T00:54:00.389Z,10.37
2018-12-15T00:56:28.727Z,6.23
2018-12-15T00:58:57.113Z,11.43
2018-12-15T01:01:25.496Z,9.07
2018-12-15T01:03:53.881Z,8.77
2018-12-15T01:06:22.262Z,9.43
2018-12-15T01:08:50.558Z,10.13
2018-12-15T01:11:18.870Z,11.63
2018-12-15T01:13:47.224Z,11.80
2018-12-15T01:16:15.561Z,10.67
2018-12-15T01:18:43.908Z,9.03
2018-12-15T01:21:12.243Z,11.83
2018-12-15T01:23:40.565Z,10.17
2018-12-15T01:26:08.912Z,11.67
2018-12-15T01:28:37.470Z,15.50
2018-12-15T01:31:05.939Z,12.50
2018-12-15T01:33:34.564Z,13.20
2018-12-15T01:36:02.917Z,13.93
2018-12-15T01:38:31.246Z,11.07
2018-12-15T01:40:59.596Z,16.47
2018-12-15T01:43:28.018Z,16.47
2018-12-15T01:45:56.441Z,12.57
2018-12-15T01:48:24.746Z,11.83
2018-12-15T01:50:53.045Z,15.00
2018-12-15T01:53:21.375Z,11.63
2018-12-15T01:55:49.788Z,12.13
2018-12-15T01:58:18.094Z,12.20
2018-12-15T02:00:46.722Z,11.47
2018-12-15T02:03:15.062Z,13.30
2018-12-15T02:05:43.432Z,16.17
2018-12-15T02:08:11.767Z,13.33
2018-12-15T02:10:40.181Z,13.73
2018-12-15T02:13:08.464Z,15.17
2018-12-15T02:15:36.934Z,13.00
2018-12-15T02:18:05.271Z,12.73
2018-12-15T02:20:33.727Z,15.93
2018-12-15T02:23:02.056Z,12.33
2018-12-15T02:25:30.379Z,12.83
2018-12-15T02:27:58.763Z,10.97
2018-12-15T02:30:27.562Z,15.23
2018-12-15T02:32:55.921Z,19.73
2018-12-15T02:35:24.609Z,13.00
2018-12-15T02:37:52.929Z,13.87
2018-12-15T02:40:21.288Z,14.00
2018-12-15T02:42:50.071Z,14.50
2018-12-15T02:45:18.383Z,14.20
2018-12-15T02:47:46.807Z,11.50
2018-12-15T02:50:15.231Z,13.07
2018-12-15T02:52:43.542Z,13.57
2018-12-15T02:55:11.865Z,15.53
2018-12-15T02:57:40.462Z,14.53
2018-12-15T03:00:08.851Z,13.63
2018-12-15T03:02:37.375Z,13.20
2018-12-15T03:05:05.861Z,13.80
2018-12-15T03:07:34.221Z,12.40
2018-12-15T03:10:02.564Z,15.13
2018-12-15T03:12:30.954Z,12.83
2018-12-15T03:14:59.340Z,15.80
2018-12-15T03:17:27.655Z,17.70
2018-12-15T03:20:00.406Z,12.37
2018-12-15T03:22:28.764Z,14.87
2018-12-15T03:24:57.324Z,14.03
2018-12-15T03:27:25.648Z,13.37
2018-12-15T03:29:54.135Z,16.17
2018-12-15T03:32:22.469Z,14.87
2018-12-15T03:34:50.779Z,11.77
2018-12-15T03:37:19.439Z,16.13
2018-12-15T03:39:47.914Z,14.80
2018-12-15T03:42:16.266Z,15.70
2018-12-15T03:44:44.610Z,13.70
2018-12-15T03:47:13.315Z,11.97
2018-12-15T03:49:41.862Z,16.60
2018-12-15T03:52:10.144Z,16.93
2018-12-15T03:54:38.466Z,15.57
2018-12-15T03:57:06.903Z,13.87
2018-12-15T03:59:35.262Z,13.53
2018-12-15T04:02:03.658Z,13.87
2018-12-15T04:04:31.958Z,13.00
2018-12-15T04:07:00.392Z,14.80
2018-12-15T04:09:28.810Z,13.80
2018-12-15T04:11:57.479Z,16.57
2018-12-15T04:14:25.822Z,15.73
2018-12-15T04:16:54.217Z,16.67
2018-12-15T04:19:22.612Z,16.10
2018-12-15T04:21:50.953Z,16.60
2018-12-15T04:24:19.396Z,16.77
2018-12-15T04:26:47.773Z,14.67
2018-12-15T04:29:16.121Z,13.40
2018-12-15T04:31:44.536Z,17.77
2018-12-15T04:34:12.889Z,18.50
2018-12-15T04:36:41.254Z,16.13
2018-12-15T04:39:10.108Z,13.20
2018-12-15T04:41:38.416Z,16.17
2018-12-15T04:44:06.979Z,15.80
2018-12-15T04:46:35.295Z,12.83
2018-12-15T04:49:03.759Z,15.83
2018-12-15T04:51:32.111Z,14.10
2018-12-15T04:54:00.447Z,13.20
2018-12-15T04:56:28.786Z,11.67
2018-12-15T04:58:57.139Z,11.43
2018-12-15T05:01:25.605Z,14.27
2018-12-15T05:03:53.976Z,11.77
2018-12-15T05:06:22.398Z,10.10
2018-12-15T05:08:50.682Z,10.17
2018-12-15T05:11:19.148Z,9.83
2018-12-15T05:13:47.502Z,10.03
2018-12-15T05:16:15.878Z,14.13
2018-12-15T05:18:50.895Z,12.27
2018-12-15T05:21:19.423Z,11.07
2018-12-15T05:23:48.081Z,13.10
2018-12-15T05:26:16.426Z,11.70
2018-12-15T05:28:44.776Z,10.10
2018-12-15T05:31:13.087Z,21.80
2018-12-15T05:33:41.594Z,12.50
2018-12-15T05:36:09.925Z,12.07
2018-12-15T05:38:38.348Z,11.07
2018-12-15T05:41:07.057Z,15.20
2018-12-15T05:43:35.638Z,12.07
2018-12-15T05:46:03.968Z,12.83
2018-12-15T05:48:32.292Z,10.93
2018-12-15T05:51:00.658Z,11.10
2018-12-15T05:53:28.958Z,14.57
2018-12-15T05:55:57.312Z,9.50
2018-12-15T05:58:25.874Z,13.40
2018-12-15T06:00:54.188Z,11.47
2018-12-15T06:03:22.530Z,14.93
2018-12-15T06:05:50.917Z,17.07
2018-12-15T06:08:19.456Z,15.97
2018-12-15T06:10:47.789Z,15.97
2018-12-15T06:13:16.073Z,15.83
2018-12-15T06:15:44.446Z,15.13
2018-12-15T06:18:12.965Z,19.50
2018-12-15T06:20:41.272Z,16.70
2018-12-15T06:23:09.603Z,18.30
2018-12-15T06:25:38.018Z,20.47
2018-12-15T06:28:06.355Z,16.97
2018-12-15T06:30:34.669Z,17.33
2018-12-15T06:33:03.049Z,17.13
2018-12-15T06:35:31.351Z,15.70
2018-12-15T06:37:59.634Z,18.40
2018-12-15T06:40:28.423Z,15.47
2018-12-15T06:42:56.952Z,18.77
2018-12-15T06:45:25.272Z,20.17
2018-12-15T06:47:53.661Z,21.83
2018-12-15T06:50:22.215Z,19.77
2018-12-15T06:52:50.545Z,22.47
2018-12-15T06:55:18.866Z,16.87
2018-12-15T06:57:47.255Z,21.07
2018-12-15T07:00:15.621Z,15.83
2018-12-15T07:02:43.909Z,18.07
2018-12-15T07:05:12.304Z,18.67
2018-12-15T07:07:40.778Z,18.90
2018-12-15T07:10:09.106Z,23.30
2018-12-15T07:12:38.906Z,19.00
2018-12-15T07:15:06.912Z,19.17
2018-12-15T07:17:35.319Z,26.70
2018-12-15T07:20:03.978Z,19.87
2018-12-15T07:22:32.332Z,20.00
2018-12-15T07:25:00.760Z,19.53
2018-12-15T07:27:29.082Z,18.73
2018-12-15T07:29:57.501Z,14.50
2018-12-15T07:32:25.790Z,20.27
2018-12-15T07:35:00.641Z,16.37
2018-12-15T07:37:22.640Z,19.17
2018-12-15T07:39:50.943Z,15.27
2018-12-15T07:42:19.402Z,19.97
2018-12-15T07:44:47.797Z,15.80
2018-12-15T07:47:16.103Z,16.27
2018-12-15T07:49:44.533Z,14.70
2018-12-15T07:52:12.909Z,19.83
2018-12-15T07:54:41.277Z,20.17
2018-12-15T07:57:09.596Z,18.70
2018-12-15T07:59:38.045Z,16.53
2018-12-15T08:02:06.400Z,17.07
2018-12-15T08:04:34.728Z,19.80
2018-12-15T08:07:03.051Z,22.80
2018-12-15T08:09:31.422Z,18.87
2018-12-15T08:12:05.181Z,19.83
2018-12-15T08:14:33.695Z,20.57
2018-12-15T08:17:02.010Z,20.27
2018-12-15T08:19:30.430Z,18.47
2018-12-15T08:21:58.746Z,19.20
2018-12-15T08:24:27.351Z,15.80
2018-12-15T08:26:55.687Z,23.47
2018-12-15T08:29:24.057Z,17.23
2018-12-15T08:31:52.424Z,13.60
2018-12-15T08:34:20.858Z,18.37
2018-12-15T08:36:49.261Z,17.13
2018-12-15T08:39:17.615Z,19.17
2018-12-15T08:41:45.940Z,17.87
2018-12-15T08:44:14.232Z,23.40
2018-12-15T08:46:42.599Z,23.70
2018-12-15T08:49:10.915Z,22.50
2018-12-15T08:51:39.490Z,23.37
2018-12-15T08:54:07.897Z,25.77
2018-12-15T08:56:36.232Z,24.50
2018-12-15T08:59:04.548Z,26.50
2018-12-15T09:01:33.011Z,21.90
2018-12-15T09:04:01.388Z,23.37
2018-12-15T09:06:29.721Z,17.70
2018-12-15T09:08:58.089Z,22.80
2018-12-15T09:11:26.429Z,21.90
2018-12-15T09:13:54.714Z,18.47
2018-12-15T09:16:26.492Z,20.33
2018-12-15T09:18:52.003Z,22.97
2018-12-15T09:21:20.289Z,23.13
2018-12-15T09:23:48.623Z,20.67
2018-12-15T09:26:17.225Z,24.37
2018-12-15T09:28:45.597Z,20.90
2018-12-15T09:31:14.159Z,22.73
2018-12-15T09:33:42.509Z,24.73
2018-12-15T09:36:10.887Z,24.23
2018-12-15T09:38:39.308Z,22.90
2018-12-15T09:41:07.635Z,23.33
2018-12-15T09:43:35.937Z,20.63
2018-12-15T09:46:04.618Z,19.57
2018-12-15T09:48:32.940Z,22.20
2018-12-15T09:51:01.292Z,21.40
2018-12-15T09:53:29.631Z,20.23
2018-12-15T09:55:57.938Z,23.83
2018-12-15T09:58:26.303Z,20.60
2018-12-15T10:00:54.606Z,28.17
2018-12-15T10:03:22.946Z,20.77
2018-12-15T10:05:51.377Z,20.43
2018-12-15T10:08:19.770Z,18.80
2018-12-15T10:10:48.094Z,20.93
2018-12-15T10:13:16.413Z,22.00
2018-12-15T10:15:44.724Z,21.33
2018-12-15T10:18:13.170Z,27.03
2018-12-15T10:20:41.562Z,23.27
2018-12-15T10:23:09.912Z,21.93
2018-12-15T10:25:38.285Z,22.10
2018-12-15T10:28:06.617Z,21.23
2018-12-15T10:30:40.404Z,18.33
2018-12-15T10:33:08.820Z,19.47
2018-12-15T10:35:37.128Z,19.63
2018-12-15T10:38:05.520Z,19.77
2018-12-15T10:40:33.815Z,21.83
2018-12-15T10:43:02.134Z,22.63
2018-12-15T10:45:30.554Z,18.53
2018-12-15T10:47:59.053Z,19.53
2018-12-15T10:50:27.376Z,18.87
2018-12-15T10:52:55.687Z,19.67
2018-12-15T10:55:23.977Z,20.30
2018-12-15T10:57:52.342Z,26.23
2018-12-15T11:00:24.657Z,22.43
2018-12-15T11:02:53.037Z,20.40
2018-12-15T11:05:21.377Z,22.03
2018-12-15T11:07:49.699Z,21.13
2018-12-15T11:10:18.338Z,25.70
2018-12-15T11:12:46.678Z,24.93
2018-12-15T11:15:14.983Z,24.90
2018-12-15T11:17:43.327Z,22.23
2018-12-15T11:20:11.817Z,24.80
2018-12-15T11:22:40.116Z,23.83
2018-12-15T11:25:08.479Z,23.93
2018-12-15T11:27:36.773Z,24.37
2018-12-15T11:30:05.704Z,23.17
2018-12-15T11:32:34.126Z,30.83
2018-12-15T11:35:02.506Z,26.47
2018-12-15T11:37:30.819Z,24.80
2018-12-15T11:39:59.282Z,25.63
2018-12-15T11:42:27.729Z,31.77
2018-12-15T11:44:56.065Z,29.23
2018-12-15T11:47:24.413Z,29.97
2018-12-15T11:49:52.797Z,26.07
2018-12-15T11:52:21.140Z,29.30
2018-12-15T11:54:49.489Z,26.63
2018-12-15T11:57:17.847Z,25.03
2018-12-15T11:59:46.299Z,25.97
2018-12-15T12:02:14.689Z,31.40
2018-12-15T12:04:43.233Z,25.73
2018-12-15T12:07:11.626Z,26.60
2018-12-15T12:09:40.122Z,27.67
2018-12-15T12:12:08.509Z,28.53
2018-12-15T12:14:36.810Z,30.83
2018-12-15T12:17:05.224Z,23.13
2018-12-15T12:19:33.603Z,32.67
2018-12-15T12:22:02.053Z,28.60
2018-12-15T12:24:30.370Z,30.80
2018-12-15T12:26:58.679Z,27.50
2018-12-15T12:29:27.015Z,29.77
2018-12-15T12:31:55.552Z,27.47
2018-12-15T12:34:23.910Z,26.27
2018-12-15T12:36:52.252Z,28.47
2018-12-15T12:39:20.681Z,25.23
2018-12-15T12:41:49.006Z,27.73
2018-12-15T12:44:17.401Z,30.33
2018-12-15T12:46:45.698Z,29.67
2018-12-15T12:49:14.056Z,23.20
2018-12-15T12:51:42.388Z,25.57
2018-12-15T12:54:10.821Z,25.67
2018-12-15T12:56:39.221Z,24.77
2018-12-15T12:59:07.687Z,28.03
2018-12-15T13:01:35.989Z,28.70
2018-12-15T13:04:04.439Z,24.83
2018-12-15T13:06:32.756Z,26.50
2018-12-15T13:09:01.212Z,30.30
2018-12-15T13:11:29.556Z,32.03
2018-12-15T13:13:57.969Z,25.93
2018-12-15T13:16:26.464Z,26.87
2018-12-15T13:18:56.054Z,25.30
2018-12-15T13:21:23.278Z,25.90
2018-12-15T13:23:51.787Z,27.87
2018-12-15T13:26:20.159Z,28.47
2018-12-15T13:28:48.580Z,26.93
2018-12-15T13:31:16.901Z,23.33
2018-12-15T13:33:45.343Z,29.80
2018-12-15T13:36:15.668Z,29.77
2018-12-15T13:38:44.042Z,27.57
2018-12-15T13:41:12.442Z,29.90
2018-12-15T13:43:40.911Z,21.77
2018-12-15T13:46:09.236Z,28.83
2018-12-15T13:48:37.645Z,29.87
2018-12-15T13:51:05.988Z,27.40
2018-12-15T13:53:34.382Z,27.87
2018-12-15T13:56:02.747Z,27.70
2018-12-15T13:58:31.067Z,31.90
2018-12-15T14:00:59.371Z,29.60
2018-12-15T14:03:27.740Z,30.97
2018-12-15T14:05:56.357Z,24.30
2018-12-15T14:08:24.711Z,30.53
2018-12-15T14:10:53.105Z,26.50
2018-12-15T14:13:21.438Z,23.90
2018-12-15T14:15:49.802Z,25.73
2018-12-15T14:18:18.139Z,31.00
2018-12-15T14:20:46.564Z,23.00
2018-12-15T14:23:14.892Z,27.97
2018-12-15T14:25:43.528Z,25.07
2018-12-15T14:28:11.912Z,29.10
2018-12-15T14:30:40.455Z,25.47
2018-12-15T14:33:08.782Z,28.27
2018-12-15T14:35:37.090Z,23.60
2018-12-15T14:38:05.571Z,25.43
2018-12-15T14:40:33.950Z,25.77
2018-12-15T14:43:02.310Z,24.83
2018-12-15T14:45:30.685Z,23.63
2018-12-15T14:47:59.035Z,25.20
2018-12-15T14:50:27.369Z,25.80
2018-12-15T14:52:55.752Z,25.70
2018-12-15T14:55:24.084Z,33.37
2018-12-15T14:57:52.446Z,28.37
2018-12-15T15:00:20.797Z,28.40
2018-12-15T15:02:49.213Z,25.17
2018-12-15T15:05:17.610Z,24.73
2018-12-15T15:07:45.923Z,24.47
2018-12-15T15:10:14.269Z,25.37
2018-12-15T15:12:42.820Z,27.70
2018-12-15T15:15:11.220Z,28.93
2018-12-15T15:17:39.534Z,25.93
2018-12-15T15:20:10.124Z,23.23
2018-12-15T15:22:38.828Z,27.63
2018-12-15T15:25:07.499Z,23.60
2018-12-15T15:27:35.978Z,20.70
2018-12-15T15:30:05.626Z,24.90
2018-12-15T15:32:33.968Z,21.33
2018-12-15T15:35:02.800Z,19.30
2018-12-15T15:37:31.088Z,23.47
2018-12-15T15:39:59.443Z,23.03
2018-12-15T15:42:27.900Z,21.07
2018-12-15T15:44:56.199Z,25.03
2018-12-15T15:47:24.545Z,25.37
2018-12-15T15:49:53.436Z,21.60
2018-12-15T15:52:21.736Z,27.23
2018-12-15T15:54:50.035Z,22.30
2018-12-15T15:57:18.569Z,22.70
2018-12-15T15:59:46.885Z,19.10
2018-12-15T16:02:15.195Z,30.70
2018-12-15T16:04:43.863Z,21.57
2018-12-15T16:07:12.194Z,23.10
2018-12-15T16:09:44.897Z,24.47
2018-12-15T16:12:09.444Z,19.73
2018-12-15T16:14:37.722Z,17.33
2018-12-15T16:17:06.045Z,21.40
2018-12-15T16:19:34.739Z,20.47
2018-12-15T16:22:03.076Z,17.97
2018-12-15T16:24:31.429Z,18.97
2018-12-15T16:26:59.941Z,18.20
2018-12-15T16:29:28.247Z,26.07
2018-12-15T16:31:56.783Z,23.40
2018-12-15T16:34:25.458Z,20.00
2018-12-15T16:36:53.776Z,26.33
2018-12-15T16:39:22.320Z,22.63
2018-12-15T16:41:50.728Z,19.90
2018-12-15T16:44:19.047Z,19.73
2018-12-15T16:46:47.429Z,23.03
2018-12-15T16:49:16.204Z,20.03
2018-12-15T16:51:44.631Z,23.07
2018-12-15T16:54:12.961Z,20.73
2018-12-15T16:56:41.406Z,24.07
2018-12-15T16:59:09.779Z,20.67
2018-12-15T17:01:38.115Z,21.23
2018-12-15T17:04:06.913Z,18.73
2018-12-15T17:06:35.324Z,19.47
2018-12-15T17:09:04.582Z,20.13
2018-12-15T17:11:33.131Z,22.27
2018-12-15T17:14:01.448Z,24.17
2018-12-15T17:16:29.860Z,21.60
2018-12-15T17:18:58.579Z,23.87
2018-12-15T17:21:26.929Z,22.33
2018-12-15T17:23:55.280Z,19.10
2018-12-15T17:26:23.786Z,22.10
2018-12-15T17:28:52.174Z,18.00
2018-12-15T17:31:20.627Z,19.20
2018-12-15T17:33:49.594Z,21.90
2018-12-15T17:36:17.958Z,21.87
2018-12-15T17:38:46.280Z,21.50
2018-12-15T17:41:14.891Z,22.20
2018-12-15T17:43:43.299Z,23.37
2018-12-15T17:46:11.623Z,22.07
2018-12-15T17:48:40.078Z,28.63
2018-12-15T17:51:08.423Z,25.23
2018-12-15T17:53:36.803Z,24.43
2018-12-15T17:56:05.623Z,21.50
2018-12-15T17:58:33.999Z,32.27
2018-12-15T18:01:02.647Z,26.53
2018-12-15T18:03:31.223Z,23.80
2018-12-15T18:05:59.715Z,20.87
2018-12-15T18:08:27.988Z,23.90
2018-12-15T18:10:56.793Z,21.97
2018-12-15T18:13:25.348Z,22.97
2018-12-15T18:15:53.801Z,21.93
2018-12-15T18:18:22.849Z,27.67
2018-12-15T18:20:51.419Z,27.93
2018-12-15T18:23:19.733Z,29.30
2018-12-15T18:25:48.597Z,20.53
2018-12-15T18:28:16.977Z,24.63
2018-12-15T18:30:45.477Z,23.63
2018-12-15T18:33:14.346Z,25.80
2018-12-15T18:35:42.732Z,27.27
2018-12-15T18:38:11.047Z,22.37
2018-12-15T18:40:40.087Z,23.90
2018-12-15T18:43:08.643Z,23.33
2018-12-15T18:45:37.263Z,19.87
2018-12-15T18:48:05.835Z,25.63
2018-12-15T18:50:34.384Z,23.20
2018-12-15T18:53:02.697Z,26.00
2018-12-15T18:55:31.582Z,24.43
2018-12-15T18:57:59.974Z,21.30
2018-12-15T19:00:28.306Z,25.87
2018-12-15T19:02:56.897Z,27.37
2018-12-15T19:05:25.350Z,24.90
2018-12-15T19:07:53.780Z,22.63
2018-12-15T19:10:22.464Z,22.40
2018-12-15T19:12:50.787Z,27.40
2018-12-15T19:15:19.084Z,25.90
2018-12-15T19:17:47.757Z,25.23
2018-12-15T19:20:16.256Z,32.07
2018-12-15T19:22:44.659Z,27.50
2018-12-15T19:25:13.147Z,24.60
2018-12-15T19:27:42.172Z,25.03
2018-12-15T19:30:10.967Z,24.40
2018-12-15T19:32:39.713Z,30.93
2018-12-15T19:35:08.084Z,30.20
2018-12-15T19:37:36.379Z,29.23
2018-12-15T19:40:05.922Z,23.17
2018-12-15T19:42:34.249Z,24.23
2018-12-15T19:45:02.770Z,24.77
2018-12-15T19:47:31.367Z,27.53
2018-12-15T19:49:59.636Z,26.77
2018-12-15T19:52:28.172Z,25.10
2018-12-15T19:54:56.722Z,28.13
2018-12-15T19:57:25.060Z,28.53
2018-12-15T19:59:53.467Z,26.77
2018-12-15T20:02:21.998Z,25.47
2018-12-15T20:04:50.324Z,30.47
2018-12-15T20:07:18.634Z,23.47
2018-12-15T20:09:47.064Z,27.43
2018-12-15T20:12:15.561Z,27.10
2018-12-15T20:14:43.929Z,24.40
2018-12-15T20:17:12.450Z,28.20
2018-12-15T20:19:40.816Z,29.27
2018-12-15T20:22:09.189Z,23.47
2018-12-15T20:24:37.784Z,26.77
2018-12-15T20:27:06.082Z,25.10
2018-12-15T20:29:34.876Z,27.93
2018-12-15T20:32:03.706Z,26.17
2018-12-15T20:34:32.034Z,24.43
2018-12-15T20:37:00.361Z,26.93
2018-12-15T20:39:29.278Z,24.00
2018-12-15T20:41:57.585Z,27.97
2018-12-15T20:44:25.989Z,22.83
2018-12-15T20:46:54.718Z,28.80
2018-12-15T20:49:23.007Z,27.27
2018-12-15T20:51:51.404Z,28.53
2018-12-15T20:54:20.400Z,34.40
2018-12-15T20:56:48.708Z,28.23
2018-12-15T20:59:17.093Z,29.30
2018-12-15T21:01:45.762Z,33.43
2018-12-15T21:04:14.102Z,28.00
2018-12-15T21:06:42.482Z,30.00
2018-12-15T21:09:11.037Z,28.67
2018-12-15T21:11:39.396Z,29.57
2018-12-15T21:14:07.733Z,28.63
2018-12-15T21:16:36.134Z,31.23
2018-12-15T21:19:04.468Z,28.17
2018-12-15T21:21:32.894Z,29.17
2018-12-15T21:24:01.470Z,29.30
2018-12-15T21:26:30.021Z,32.00
2018-12-15T21:28:58.393Z,32.63
2018-12-15T21:31:27.052Z,27.67
2018-12-15T21:33:55.374Z,25.43
2018-12-15T21:36:23.807Z,29.83
2018-12-15T21:38:52.366Z,26.77
2018-12-15T21:41:20.671Z,27.20
2018-12-15T21:43:49.008Z,32.17
2018-12-15T21:46:17.474Z,26.30
2018-12-15T21:48:45.817Z,24.53
2018-12-15T21:51:14.114Z,30.77
2018-12-15T21:53:42.559Z,23.17
2018-12-15T21:56:10.970Z,31.07
2018-12-15T21:58:39.287Z,28.93
2018-12-15T22:01:07.888Z,30.00
2018-12-15T22:03:36.238Z,26.80
2018-12-15T22:06:04.595Z,29.30
2018-12-15T22:08:33.327Z,32.33
2018-12-15T22:11:01.721Z,29.43
2018-12-15T22:13:30.029Z,29.60
2018-12-15T22:15:58.465Z,32.83
2018-12-15T22:18:27.024Z,34.57
2018-12-15T22:20:55.385Z,31.53
2018-12-15T22:23:23.787Z,26.50
2018-12-15T22:25:52.145Z,24.73
2018-12-15T22:28:20.501Z,28.37
2018-12-15T22:30:49.341Z,29.70
2018-12-15T22:33:17.685Z,29.83
2018-12-15T22:35:46.372Z,25.93
2018-12-15T22:38:15.087Z,26.87
2018-12-15T22:40:43.751Z,33.33
2018-12-15T22:43:12.079Z,26.83
2018-12-15T22:45:40.837Z,26.23
2018-12-15T22:48:09.165Z,29.27
2018-12-15T22:50:37.556Z,31.73
2018-12-15T22:53:06.472Z,22.10
2018-12-15T22:55:34.840Z,28.30
2018-12-15T22:58:03.312Z,27.37
2018-12-15T23:00:36.050Z,26.47
2018-12-15T23:03:04.467Z,24.57
2018-12-15T23:05:32.843Z,32.90
2018-12-15T23:08:01.536Z,28.90
2018-12-15T23:10:29.858Z,28.50
2018-12-15T23:12:58.209Z,30.60
2018-12-15T23:15:26.647Z,31.23
2018-12-15T23:17:54.946Z,27.60
2018-12-15T23:20:23.352Z,25.17
2018-12-15T23:22:51.760Z,22.13
2018-12-15T23:25:20.074Z,23.90
2018-12-15T23:27:48.487Z,24.10
2018-12-15T23:30:17.010Z,22.07
2018-12-15T23:32:45.494Z,28.47
2018-12-15T23:35:13.918Z,28.73
2018-12-15T23:37:42.804Z,25.33
2018-12-15T23:40:11.140Z,25.40
2018-12-15T23:42:39.477Z,27.00
2018-12-15T23:45:08.207Z,28.53
2018-12-15T23:47:36.579Z,27.53
2018-12-15T23:50:05.333Z,29.00
2018-12-15T23:52:34.249Z,26.43
2018-12-15T23:55:02.607Z,25.57
2018-12-15T23:57:30.932Z,32.47
2018-12-15T23:59:59.592Z,32.30
